Time;durP1;ratioP1;P1;durP2;ratioP2;P2;SDS_P1;SDS_P2;PMS_P1;PMS_P2;Temp;Humidity;BMP_temperature;BMP_pressure;BME280_temperature;BME280_humidity;BME280_pressure;Samples;Min_cycle;Max_cycle;Signal;HPM_P1;HPM_P2
2023/05/27 14:45:35;;;;;;;6.43;2.53;;;27.70;58.70;;;;;;5096405;27;20507;-71
2023/05/27 14:48:01;;;;;;;8.95;3.13;;;26.40;58.60;;;;;;5066876;28;20184;-72
2023/05/27 14:50:26;;;;;;;5.32;2.97;;;26.80;59.60;;;;;;4995804;28;20196;-71
2023/05/27 14:52:53;;;;;;;5.40;2.70;;;26.80;57.20;;;;;;5061140;28;20586;-70
2023/05/27 14:55:19;;;;;;;4.47;2.78;;;26.60;57.60;;;;;;5082042;28;20668;-71
2023/05/27 14:57:45;;;;;;;6.22;2.75;;;26.40;58.00;;;;;;5006216;28;20164;-73
2023/05/27 15:00:11;;;;;;;5.35;3.00;;;26.60;58.40;;;;;;5033641;28;20690;-73
2023/05/27 15:02:37;;;;;;;5.35;2.88;;;26.10;59.60;;;;;;5110043;28;20607;-74
2023/05/27 15:05:04;;;;;;;6.00;2.80;;;26.50;60.40;;;;;;5012234;28;20192;-72
2023/05/27 15:07:33;;;;;;;7.18;3.20;;;27.00;61.10;;;;;;5005224;28;20516;-73
2023/05/27 15:09:59;;;;;;;4.40;2.53;;;26.90;60.00;;;;;;5006206;28;20164;-73
2023/05/27 15:12:26;;;;;;;5.53;2.67;;;26.40;60.60;;;;;;4994770;28;20199;-74
2023/05/27 15:14:51;;;;;;;6.00;2.90;;;27.00;63.90;;;;;;5021090;28;20167;-73
2023/05/27 15:17:17;;;;;;;4.57;2.97;;;27.10;61.10;;;;;;5034129;28;20185;-73
2023/05/27 15:19:42;;;;;;;6.20;2.92;;;27.30;59.10;;;;;;5005055;28;20640;-73
2023/05/27 15:22:08;;;;;;;7.22;3.10;;;26.80;58.30;;;;;;5068994;28;20525;-74
2023/05/27 15:24:34;;;;;;;4.53;2.70;;;26.90;58.30;;;;;;5110705;28;20651;-73
2023/05/27 15:27:02;;;;;;;6.38;2.70;;;27.20;61.20;;;;;;5107046;28;20200;-72
2023/05/27 15:29:28;;;;;;;4.75;2.88;;;27.40;58.30;;;;;;5013359;28;20176;-72
2023/05/27 15:31:54;;;;;;;3.78;2.53;;;26.80;57.90;;;;;;5006259;28;20172;-71
2023/05/27 15:34:20;;;;;;;3.92;2.70;;;26.80;58.10;;;;;;5012106;28;21520;-71
2023/05/27 15:36:45;;;;;;;4.68;2.50;;;27.30;59.90;;;;;;5011019;28;20204;-69
2023/05/27 15:39:11;;;;;;;4.20;2.80;;;27.20;55.90;;;;;;5032259;28;20175;-70
2023/05/27 15:41:37;;;;;;;4.88;3.13;;;26.10;58.10;;;;;;5040968;28;20637;-71
2023/05/27 15:44:03;;;;;;;3.38;2.25;;;26.50;59.60;;;;;;5060366;28;20260;-72
2023/05/27 15:46:28;;;;;;;3.58;2.30;;;26.90;54.80;;;;;;5015800;28;20228;-71
2023/05/27 15:48:55;;;;;;;15.57;2.75;;;27.20;55.40;;;;;;5036561;28;20533;-70
2023/05/27 15:51:21;;;;;;;6.38;2.67;;;27.10;56.30;;;;;;5109625;28;20157;-72
2023/05/27 15:53:46;;;;;;;6.32;2.90;;;26.50;55.50;;;;;;5108538;28;20626;-73
2023/05/27 15:56:12;;;;;;;5.07;2.80;;;26.70;54.00;;;;;;5041566;28;20203;-70
2023/05/27 15:58:38;;;;;;;5.38;3.15;;;26.90;52.90;;;;;;5093490;28;20696;-69
2023/05/27 16:01:05;;;;;;;7.05;2.72;;;27.20;53.40;;;;;;5034773;28;20546;-69
2023/05/27 16:03:30;;;;;;;2.88;2.35;;;26.70;53.50;;;;;;5044576;28;20559;-68
2023/05/27 16:05:56;;;;;;;5.03;2.50;;;26.70;52.20;;;;;;5034718;28;20188;-71
2023/05/27 16:08:22;;;;;;;2.75;2.08;;;27.00;50.90;;;;;;4998430;28;20197;-69
2023/05/27 16:10:52;;;;;;;3.55;2.05;;;26.40;52.70;;;;;;4992737;28;20251;-70
2023/05/27 16:13:18;;;;;;;3.42;1.88;;;26.30;52.50;;;;;;4992457;28;20230;-67
2023/05/27 16:15:45;;;;;;;4.53;2.08;;;25.50;50.60;;;;;;5061487;28;20238;-68
2023/05/27 16:18:11;;;;;;;4.55;2.40;;;25.40;52.60;;;;;;4998922;28;20267;-70
2023/05/27 16:20:37;;;;;;;3.17;2.03;;;25.20;53.10;;;;;;4992912;28;20278;-70
2023/05/27 16:23:02;;;;;;;4.82;2.60;;;25.70;50.70;;;;;;4991681;28;20227;-69
2023/05/27 16:25:28;;;;;;;2.83;2.22;;;25.10;51.50;;;;;;4990077;28;20287;-70
2023/05/27 16:27:54;;;;;;;4.65;2.45;;;25.40;53.00;;;;;;4991933;28;20161;-69
2023/05/27 16:30:19;;;;;;;4.68;2.55;;;25.10;52.70;;;;;;4997407;28;20175;-72
2023/05/27 16:32:45;;;;;;;4.50;2.13;;;25.20;50.80;;;;;;4992104;28;20188;-70
2023/05/27 16:35:11;;;;;;;5.53;2.38;;;25.10;51.30;;;;;;5070360;28;20597;-69
2023/05/27 16:37:37;;;;;;;3.55;2.08;;;24.80;52.50;;;;;;4992981;28;20185;-70
2023/05/27 16:40:04;;;;;;;2.40;2.00;;;24.70;53.40;;;;;;5005519;28;20538;-72
2023/05/27 16:42:29;;;;;;;3.55;2.40;;;24.20;53.70;;;;;;4991100;28;20173;-68
2023/05/27 16:44:55;;;;;;;5.22;2.40;;;24.40;52.80;;;;;;4990467;28;20212;-70
2023/05/27 16:47:20;;;;;;;2.92;2.28;;;24.50;53.10;;;;;;4990532;28;20644;-71
2023/05/27 16:49:47;;;;;;;5.25;2.85;;;24.80;49.80;;;;;;4991770;28;20771;-69
2023/05/27 16:52:12;;;;;;;3.05;2.13;;;24.50;51.30;;;;;;4992279;28;20145;-69
2023/05/27 16:54:38;;;;;;;4.35;2.10;;;24.40;50.60;;;;;;4991250;28;20192;-69
2023/05/27 16:57:04;;;;;;;4.63;2.17;;;24.40;52.80;;;;;;4972840;28;20259;-70
2023/05/27 16:59:31;;;;;;;5.28;2.10;;;24.00;52.30;;;;;;4989672;28;20177;-69
2023/05/27 17:01:56;;;;;;;4.13;1.95;;;24.30;52.50;;;;;;4991856;28;20165;-71
2023/05/27 17:04:22;;;;;;;3.80;2.05;;;24.20;52.90;;;;;;4992043;28;20204;-70
2023/05/27 17:06:47;;;;;;;4.40;2.20;;;24.00;53.70;;;;;;4990953;28;20656;-71
2023/05/27 17:09:13;;;;;;;3.53;2.00;;;24.10;54.30;;;;;;4990291;28;20180;-71
2023/05/27 17:11:38;;;;;;;4.07;2.33;;;23.80;55.30;;;;;;4992670;28;20177;-71
2023/05/27 17:14:04;;;;;;;4.97;2.40;;;23.80;55.80;;;;;;5056132;28;20568;-71
2023/05/27 17:16:30;;;;;;;4.57;2.20;;;24.10;55.10;;;;;;5072526;22;20307;-68
2023/05/27 17:18:55;;;;;;;3.58;2.15;;;23.80;55.60;;;;;;5002747;28;20168;-68
2023/05/27 17:21:21;;;;;;;2.60;2.08;;;23.70;54.90;;;;;;5028343;28;20178;-67
2023/05/27 17:23:46;;;;;;;6.10;2.35;;;23.40;55.40;;;;;;5071197;28;20818;-68
2023/05/27 17:26:13;;;;;;;3.55;2.33;;;23.50;55.00;;;;;;5017101;28;20561;-68
2023/05/27 17:28:38;;;;;;;3.58;2.20;;;23.40;56.30;;;;;;5016590;28;20551;-67
2023/05/27 17:31:04;;;;;;;4.47;2.15;;;23.40;56.70;;;;;;5045647;28;20176;-68
2023/05/27 17:33:30;;;;;;;4.65;2.50;;;23.50;55.60;;;;;;5029332;28;20180;-67
2023/05/27 17:35:55;;;;;;;5.20;2.33;;;23.20;56.10;;;;;;5017437;28;20462;-67
2023/05/27 17:38:23;;;;;;;3.83;2.20;;;23.20;55.50;;;;;;5005080;28;20264;-67
2023/05/27 17:40:49;;;;;;;4.95;2.13;;;23.20;55.70;;;;;;5038225;28;20632;-67
2023/05/27 17:43:15;;;;;;;5.18;2.45;;;23.30;55.20;;;;;;5058287;28;20181;-67
2023/05/27 17:45:40;;;;;;;3.92;2.10;;;23.20;56.00;;;;;;5009420;28;20266;-67
2023/05/27 17:48:10;;;;;;;3.83;2.17;;;23.10;57.50;;;;;;5015254;28;20172;-67
2023/05/27 17:50:36;;;;;;;4.50;2.10;;;22.90;56.70;;;;;;5046202;28;20172;-67
2023/05/27 17:53:01;;;;;;;4.65;2.25;;;23.00;57.00;;;;;;5011397;28;20274;-67
2023/05/27 17:55:27;;;;;;;5.30;2.00;;;22.80;58.70;;;;;;5021725;28;20246;-67
2023/05/27 17:57:53;;;;;;;3.65;2.05;;;22.70;57.70;;;;;;5044307;28;20228;-67
2023/05/27 18:00:18;;;;;;;5.22;2.50;;;22.70;57.70;;;;;;5016150;28;20187;-67
2023/05/27 18:02:44;;;;;;;4.30;2.28;;;22.50;60.20;;;;;;5039747;28;20168;-67
2023/05/27 18:05:09;;;;;;;6.03;2.20;;;22.50;60.10;;;;;;5007387;28;20318;-67
2023/05/27 18:07:35;;;;;;;3.70;2.13;;;22.10;63.80;;;;;;5032501;28;20232;-67
2023/05/27 18:10:01;;;;;;;6.35;2.30;;;22.10;64.10;;;;;;5008953;28;20171;-66
2023/05/27 18:12:27;;;;;;;5.00;2.30;;;22.00;64.20;;;;;;5006585;28;20179;-67
2023/05/27 18:14:52;;;;;;;4.28;2.22;;;21.90;66.30;;;;;;5050359;28;20165;-67
2023/05/27 18:17:18;;;;;;;3.50;2.40;;;21.60;68.30;;;;;;5006263;28;20686;-67
2023/05/27 18:19:43;;;;;;;2.75;2.47;;;21.50;69.50;;;;;;5036037;28;20521;-67
2023/05/27 18:22:09;;;;;;;4.28;2.15;;;21.60;69.40;;;;;;5021557;28;20643;-67
2023/05/27 18:24:35;;;;;;;2.45;2.05;;;21.80;65.10;;;;;;5017902;28;20207;-67
2023/05/27 18:27:00;;;;;;;2.88;2.13;;;21.70;66.70;;;;;;4999507;28;20201;-67
2023/05/27 18:29:26;;;;;;;9.40;2.03;;;21.80;66.50;;;;;;5067171;28;20165;-67
2023/05/27 18:31:52;;;;;;;3.50;2.40;;;21.70;69.30;;;;;;5015403;28;20581;-67
2023/05/27 18:34:17;;;;;;;5.78;2.70;;;21.60;67.70;;;;;;5016651;28;20169;-67
2023/05/27 18:36:43;;;;;;;5.78;2.75;;;21.50;68.40;;;;;;4993828;28;20257;-67
2023/05/27 18:39:08;;;;;;;6.18;2.67;;;21.40;68.80;;;;;;5037090;28;20214;-67
2023/05/27 18:41:34;;;;;;;4.85;3.35;;;21.40;69.60;;;;;;4990609;28;20176;-67
2023/05/27 18:44:00;;;;;;;8.27;3.25;;;21.30;70.00;;;;;;4999044;28;20279;-66
2023/05/27 18:46:25;;;;;;;4.40;2.45;;;21.20;70.40;;;;;;5052930;28;20608;-66
2023/05/27 18:48:51;;;;;;;6.25;2.85;;;21.00;74.40;;;;;;5039241;28;20172;-66
2023/05/27 18:51:16;;;;;;;4.32;2.60;;;21.00;74.90;;;;;;5003968;28;20169;-66
2023/05/27 18:53:42;;;;;;;7.00;3.30;;;20.90;73.20;;;;;;5012121;28;20228;-66
2023/05/27 18:56:08;;;;;;;2.50;2.30;;;20.80;73.80;;;;;;5050173;28;20201;-66
2023/05/27 18:58:37;;;;;;;4.22;2.85;;;20.80;75.50;;;;;;5044276;28;20180;-66
2023/05/27 19:01:02;;;;;;;4.13;2.45;;;20.70;76.70;;;;;;5005376;28;20644;-67
2023/05/27 19:03:28;;;;;;;3.20;2.50;;;20.70;75.80;;;;;;5005560;28;20298;-66
2023/05/27 19:05:53;;;;;;;4.93;2.70;;;20.60;77.20;;;;;;5017947;28;20192;-66
2023/05/27 19:08:19;;;;;;;6.97;2.50;;;20.60;76.90;;;;;;4990350;28;20260;-66
2023/05/27 19:10:45;;;;;;;7.93;2.70;;;20.50;78.00;;;;;;5047786;28;20164;-66
2023/05/27 19:13:11;;;;;;;4.20;2.20;;;20.50;78.00;;;;;;5045271;28;20203;-66
2023/05/27 19:15:37;;;;;;;14.52;7.60;;;20.30;79.60;;;;;;5013907;28;20227;-66
2023/05/27 19:18:03;;;;;;;12.68;6.35;;;20.30;82.00;;;;;;5038374;28;20205;-66
2023/05/27 19:20:29;;;;;;;9.98;3.88;;;20.00;86.70;;;;;;5041866;28;20180;-66
2023/05/27 19:22:55;;;;;;;5.28;2.80;;;19.60;92.90;;;;;;5025199;28;20180;-66
2023/05/27 19:25:20;;;;;;;7.13;2.88;;;19.50;95.40;;;;;;5027178;28;20227;-66
2023/05/27 19:27:46;;;;;;;7.78;2.38;;;19.50;97.70;;;;;;5064377;28;20169;-66
2023/05/27 19:30:12;;;;;;;3.97;2.38;;;19.40;99.90;;;;;;4998943;28;20267;-66
2023/05/27 19:32:37;;;;;;;3.92;2.40;;;19.30;99.90;;;;;;4996537;28;20182;-65
2023/05/27 19:35:04;;;;;;;7.22;2.92;;;19.30;99.90;;;;;;5043505;28;20608;-65
2023/05/27 19:37:30;;;;;;;6.68;2.83;;;19.20;99.90;;;;;;5008800;28;20172;-65
2023/05/27 19:39:57;;;;;;;3.35;2.50;;;19.00;99.90;;;;;;5005763;28;20181;-66
2023/05/27 19:42:23;;;;;;;5.00;2.55;;;18.90;99.90;;;;;;4997960;28;20255;-65
2023/05/27 19:44:49;;;;;;;4.22;2.17;;;18.90;99.90;;;;;;5020209;28;20208;-64
2023/05/27 19:47:15;;;;;;;5.00;2.38;;;18.80;99.90;;;;;;5025947;28;20173;-65
2023/05/27 19:49:41;;;;;;;4.63;2.70;;;18.50;99.90;;;;;;5072584;28;20183;-65
2023/05/27 19:52:06;;;;;;;3.80;2.33;;;18.50;99.90;;;;;;5037841;28;20258;-65
2023/05/27 19:54:32;;;;;;;5.45;2.42;;;18.30;99.90;;;;;;5002731;28;20173;-66
2023/05/27 19:56:59;;;;;;;3.15;2.38;;;18.10;99.90;;;;;;5061879;28;20204;-66
2023/05/27 19:59:25;;;;;;;4.63;2.80;;;18.10;99.90;;;;;;5063376;28;20545;-64
2023/05/27 20:01:50;;;;;;;4.95;2.60;;;18.00;99.90;;;;;;5008012;28;20176;-66
2023/05/27 20:04:16;;;;;;;6.22;2.55;;;17.70;99.90;;;;;;5020895;28;20736;-65
2023/05/27 20:06:41;;;;;;;3.97;3.20;;;17.80;99.90;;;;;;5057983;28;20253;-65
2023/05/27 20:09:08;;;;;;;5.43;2.43;;;17.70;99.90;;;;;;5046111;28;20217;-66
2023/05/27 20:11:33;;;;;;;3.63;2.53;;;17.70;99.90;;;;;;5019018;28;20175;-65
2023/05/27 20:13:59;;;;;;;2.50;2.30;;;17.60;99.90;;;;;;5045165;28;20180;-64
2023/05/27 20:16:24;;;;;;;4.90;2.50;;;17.40;99.90;;;;;;5036455;28;20671;-65
2023/05/27 20:18:50;;;;;;;5.33;2.53;;;17.30;99.90;;;;;;5013776;28;20176;-65
2023/05/27 20:21:17;;;;;;;3.93;2.47;;;17.20;99.90;;;;;;5018931;28;20220;-65
2023/05/27 20:23:42;;;;;;;10.30;4.50;;;17.20;99.90;;;;;;5058405;28;20200;-66
2023/05/27 20:26:08;;;;;;;6.80;3.73;;;17.20;99.90;;;;;;5031696;28;20589;-65
2023/05/27 20:28:33;;;;;;;8.43;3.33;;;17.10;99.90;;;;;;5002714;28;20643;-64
2023/05/27 20:30:59;;;;;;;6.90;2.87;;;17.00;99.90;;;;;;5011442;28;20195;-66
2023/05/27 20:33:25;;;;;;;4.07;2.23;;;16.90;99.90;;;;;;5011667;28;20181;-65
2023/05/27 20:35:50;;;;;;;5.50;2.80;;;16.80;99.90;;;;;;5011986;28;20190;-65
2023/05/27 20:38:16;;;;;;;5.80;2.77;;;16.70;99.90;;;;;;5012229;28;20503;-65
2023/05/27 20:40:42;;;;;;;3.77;2.53;;;16.70;99.90;;;;;;5011969;28;20201;-65
2023/05/27 20:43:08;;;;;;;6.33;2.87;;;16.60;99.90;;;;;;5010797;28;20227;-64
2023/05/27 20:45:34;;;;;;;6.47;2.57;;;16.50;99.90;;;;;;5011388;28;20221;-64
2023/05/27 20:48:00;;;;;;;4.27;2.40;;;16.60;99.90;;;;;;5011503;28;20633;-65
2023/05/27 20:50:26;;;;;;;4.67;3.03;;;;;;;;;;5011793;28;20162;-65
2023/05/27 20:52:54;;;;;;;7.67;3.10;;;;;;;;;;5011724;28;20166;-65
2023/05/27 20:55:20;;;;;;;4.90;2.87;;;;;;;;;;5011449;28;20249;-66
2023/05/27 20:57:47;;;;;;;5.70;3.47;;;;;;;;;;5011752;28;20169;-66
2023/05/27 21:00:13;;;;;;;7.07;3.07;;;;;;;;;;5011372;28;20181;-65
2023/05/27 21:02:39;;;;;;;7.27;2.67;;;;;;;;;;5012181;28;20585;-65
2023/05/27 21:05:06;;;;;;;3.40;2.80;;;;;;;;;;5011622;28;20209;-66
2023/05/27 21:07:32;;;;;;;4.23;2.57;;;;;;;;;;5011408;28;20169;-66
2023/05/27 21:09:58;;;;;;;5.50;3.17;;;;;;;;;;5011209;28;20173;-66
2023/05/27 21:12:24;;;;;;;5.87;3.43;;;;;;;;;;5011684;28;20187;-66
2023/05/27 21:14:50;;;;;;;7.87;3.27;;;;;;;;;;5011097;28;20205;-66
2023/05/27 21:17:16;;;;;;;5.00;2.80;;;;;;;;;;5010893;28;20257;-66
2023/05/27 21:19:43;;;;;;;7.10;3.37;;;;;;;;;;5010929;28;20156;-66
2023/05/27 21:22:10;;;;;;;4.77;3.30;;;;;;;;;;5011427;28;20172;-65
2023/05/27 21:24:36;;;;;;;5.37;2.83;;;;;;;;;;5011443;28;20191;-66
2023/05/27 21:27:03;;;;;;;6.03;3.17;;;;;;;;;;5011280;28;20192;-66
2023/05/27 21:29:29;;;;;;;7.67;3.17;;;;;;;;;;5011086;28;20168;-66
2023/05/27 21:31:55;;;;;;;6.37;3.57;;;;;;;;;;5011560;28;20268;-65
2023/05/27 21:34:21;;;;;;;6.83;3.50;;;;;;;;;;5011505;28;20605;-67
2023/05/27 21:36:47;;;;;;;5.77;3.20;;;;;;;;;;5011244;28;20220;-66
2023/05/27 21:39:13;;;;;;;5.77;2.90;;;;;;;;;;5011499;28;20187;-65
2023/05/27 21:41:39;;;;;;;7.13;3.00;;;;;;;;;;5011451;28;20172;-67
2023/05/27 21:44:05;;;;;;;4.83;3.30;;;;;;;;;;5011351;28;20200;-66
2023/05/27 21:46:31;;;;;;;7.17;3.50;;;;;;;;;;5011211;28;20191;-67
2023/05/27 21:48:57;;;;;;;8.60;3.17;;;;;;;;;;5011367;28;20199;-67
2023/05/27 21:51:23;;;;;;;5.50;3.27;;;;;;;;;;5011371;28;20174;-67
2023/05/27 21:53:49;;;;;;;4.47;2.97;;;;;;;;;;5010741;28;20168;-67
2023/05/27 21:56:16;;;;;;;9.40;3.30;;;;;;;;;;5011156;28;20203;-67
2023/05/27 21:58:41;;;;;;;6.30;3.20;;;;;;;;;;5011160;28;20180;-67
2023/05/27 22:01:11;;;;;;;4.77;3.20;;;;;;;;;;5010704;28;20168;-67
2023/05/27 22:03:38;;;;;;;7.53;3.40;;;;;;;;;;5010401;28;20172;-67
2023/05/27 22:06:04;;;;;;;8.03;2.97;;;;;;;;;;5010840;28;20192;-67
2023/05/27 22:08:30;;;;;;;6.67;3.13;;;;;;;;;;5010854;28;20164;-67
2023/05/27 22:10:56;;;;;;;5.70;2.70;;;;;;;;;;5010901;28;20224;-66
2023/05/27 22:13:23;;;;;;;6.87;2.97;;;;;;;;;;5010709;28;20179;-66
2023/05/27 22:15:49;;;;;;;4.57;2.63;;;;;;;;;;5010587;28;20214;-66
2023/05/27 22:18:15;;;;;;;5.97;2.87;;;;;;;;;;5010636;28;20228;-67
2023/05/27 22:20:42;;;;;;;7.23;2.73;;;;;;;;;;5010608;28;20179;-67
2023/05/27 22:23:08;;;;;;;5.83;3.30;;;14.60;99.90;;;;;;5010840;28;20172;-67
2023/05/27 22:25:33;;;;;;;4.77;2.33;;;14.50;99.90;;;;;;5010365;28;20230;-67
2023/05/27 22:28:00;;;;;;;6.27;3.10;;;14.50;99.90;;;;;;5010845;28;20172;-66
2023/05/27 22:30:26;;;;;;;5.83;3.27;;;14.40;99.90;;;;;;5010590;28;20183;-67
2023/05/27 22:32:53;;;;;;;5.90;3.10;;;14.40;99.90;;;;;;5010180;28;20616;-68
2023/05/27 22:35:19;;;;;;;7.70;3.20;;;14.40;99.90;;;;;;5009798;28;20298;-68
2023/05/27 22:37:45;;;;;;;3.73;3.07;;;14.30;99.90;;;;;;5009996;28;20176;-69
2023/05/27 22:40:11;;;;;;;5.83;3.00;;;14.40;99.90;;;;;;5009759;28;20723;-68
2023/05/27 22:42:36;;;;;;;4.77;2.90;;;14.00;99.90;;;;;;5009929;28;20245;-68
2023/05/27 22:45:03;;;;;;;5.93;3.37;;;14.10;99.90;;;;;;5009694;28;20644;-69
2023/05/27 22:47:28;;;;;;;4.23;3.10;;;14.10;99.90;;;;;;5009974;28;20179;-69
2023/05/27 22:49:54;;;;;;;5.83;2.53;;;13.80;99.90;;;;;;5009351;28;20530;-68
2023/05/27 22:52:21;;;;;;;4.67;2.70;;;13.90;99.90;;;;;;5010022;28;20708;-68
2023/05/27 22:54:47;;;;;;;6.90;2.97;;;14.00;99.90;;;;;;5009031;28;20210;-68
2023/05/27 22:57:12;;;;;;;5.13;2.87;;;14.00;99.90;;;;;;5009892;28;20180;-69
2023/05/27 22:59:38;;;;;;;4.33;2.77;;;14.00;99.90;;;;;;5009436;28;20263;-68
2023/05/27 23:02:04;;;;;;;4.03;2.90;;;14.00;99.90;;;;;;5009736;28;20626;-69
2023/05/27 23:04:29;;;;;;;3.40;2.70;;;13.90;99.90;;;;;;5009170;28;20204;-68
2023/05/27 23:06:55;;;;;;;4.80;2.50;;;13.90;99.90;;;;;;5012604;28;20196;-69
2023/05/27 23:09:20;;;;;;;3.07;2.60;;;13.80;99.90;;;;;;5012784;28;20187;-69
2023/05/27 23:11:46;;;;;;;5.77;2.30;;;13.60;99.90;;;;;;5012834;28;20179;-69
2023/05/27 23:14:12;;;;;;;4.00;2.40;;;13.70;99.90;;;;;;5013001;28;20528;-69
2023/05/27 23:16:37;;;;;;;4.57;2.60;;;13.70;99.90;;;;;;5032596;23;20210;-71
2023/05/27 23:19:03;;;;;;;4.70;2.90;;;13.70;99.90;;;;;;5091081;28;20229;-70
2023/05/27 23:21:28;;;;;;;7.40;2.90;;;13.50;99.90;;;;;;5084046;28;20708;-71
2023/05/27 23:23:54;;;;;;;3.60;2.50;;;13.60;99.90;;;;;;5096883;28;20212;-70
2023/05/27 23:26:21;;;;;;;7.33;3.10;;;13.20;99.90;;;;;;5096866;28;20187;-71
2023/05/27 23:28:47;;;;;;;3.97;2.80;;;13.10;99.90;;;;;;5097341;28;20165;-70
2023/05/27 23:31:13;;;;;;;6.90;3.33;;;12.90;99.90;;;;;;5071399;28;20172;-70
2023/05/27 23:33:38;;;;;;;3.97;2.33;;;13.10;99.90;;;;;;5098008;28;20633;-71
2023/05/27 23:36:06;;;;;;;6.67;3.00;;;13.10;99.90;;;;;;5097046;28;20649;-71
2023/05/27 23:38:31;;;;;;;4.03;2.63;;;13.20;99.90;;;;;;5067201;28;20174;-70
2023/05/27 23:40:57;;;;;;;4.63;2.77;;;13.30;99.90;;;;;;5078445;28;20166;-71
2023/05/27 23:43:25;;;;;;;6.77;2.80;;;13.30;99.90;;;;;;5096183;28;20177;-70
2023/05/27 23:45:51;;;;;;;4.20;2.70;;;13.20;99.90;;;;;;5089227;28;20311;-72
2023/05/27 23:48:16;;;;;;;7.30;3.67;;;12.90;99.90;;;;;;5089437;28;20173;-71
2023/05/27 23:50:42;;;;;;;5.57;3.10;;;13.00;99.90;;;;;;5077353;28;20455;-71
2023/05/27 23:53:07;;;;;;;6.40;2.73;;;13.00;99.90;;;;;;5095486;28;20169;-71
2023/05/27 23:55:33;;;;;;;4.33;2.60;;;13.10;99.90;;;;;;5094470;28;20189;-71
2023/05/27 23:57:58;;;;;;;4.60;2.73;;;12.80;99.90;;;;;;5095446;28;20173;-71
